sensor_id;sensor_type;location;lat;lon;timestamp;temperature;humidity
27368;DHT22;14839;48.106;11.618;2023-02-26T05:01:50;-2.40;94.60
27368;DHT22;14839;48.106;11.618;2023-02-26T05:04:16;-2.50;94.60
27368;DHT22;14839;48.106;11.618;2023-02-26T05:06:41;-2.50;94.60
27368;DHT22;14839;48.106;11.618;2023-02-26T05:09:07;-2.60;94.60
27368;DHT22;14839;48.106;11.618;2023-02-26T05:11:32;-2.60;94.60
27368;DHT22;14839;48.106;11.618;2023-02-26T05:13:58;-2.70;94.60
27368;DHT22;14839;48.106;11.618;2023-02-26T05:16:24;-2.70;94.60
27368;DHT22;14839;48.106;11.618;2023-02-26T05:18:49;-2.70;94.60
27368;DHT22;14839;48.106;11.618;2023-02-26T05:21:15;-2.80;94.60
27368;DHT22;14839;48.106;11.618;2023-02-26T05:23:40;-2.90;94.60
27368;DHT22;14839;48.106;11.618;2023-02-26T05:26:06;-2.90;94.60
27368;DHT22;14839;48.106;11.618;2023-02-26T05:28:31;-3.00;94.60
27368;DHT22;14839;48.106;11.618;2023-02-26T05:30:58;-3.00;94.60
27368;DHT22;14839;48.106;11.618;2023-02-26T05:33:25;-3.00;94.60
27368;DHT22;14839;48.106;11.618;2023-02-26T05:35:50;-3.00;94.60
27368;DHT22;14839;48.106;11.618;2023-02-26T05:38:16;-3.10;94.60
27368;DHT22;14839;48.106;11.618;2023-02-26T05:40:42;-3.10;94.60
27368;DHT22;14839;48.106;11.618;2023-02-26T05:43:07;-3.10;94.60
27368;DHT22;14839;48.106;11.618;2023-02-26T05:45:33;-3.10;94.60
27368;DHT22;14839;48.106;11.618;2023-02-26T05:47:59;-3.10;94.60
27368;DHT22;14839;48.106;11.618;2023-02-26T05:50:25;-3.20;94.60
27368;DHT22;14839;48.106;11.618;2023-02-26T05:52:51;-3.20;94.60
27368;DHT22;14839;48.106;11.618;2023-02-26T05:55:17;-3.20;94.60
27368;DHT22;14839;48.106;11.618;2023-02-26T05:57:43;-3.20;94.60
27368;DHT22;14839;48.106;11.618;2023-02-26T06:00:09;-3.20;94.60
27368;DHT22;14839;48.106;11.618;2023-02-26T06:02:35;-3.30;94.60
27368;DHT22;14839;48.106;11.618;2023-02-26T06:05:00;-3.30;94.60
27368;DHT22;14839;48.106;11.618;2023-02-26T06:07:26;-3.30;94.60
27368;DHT22;14839;48.106;11.618;2023-02-26T06:09:51;-3.30;94.60
27368;DHT22;14839;48.106;11.618;2023-02-26T06:12:17;-3.30;94.60
27368;DHT22;14839;48.106;11.618;2023-02-26T06:14:43;-3.30;94.60
27368;DHT22;14839;48.106;11.618;2023-02-26T06:17:08;-3.30;94.60
27368;DHT22;14839;48.106;11.618;2023-02-26T06:19:34;-3.20;94.60
27368;DHT22;14839;48.106;11.618;2023-02-26T06:21:59;-3.10;94.60
27368;DHT22;14839;48.106;11.618;2023-02-26T06:24:25;-3.10;94.60
27368;DHT22;14839;48.106;11.618;2023-02-26T06:26:51;-3.00;94.60
27368;DHT22;14839;48.106;11.618;2023-02-26T06:29:17;-2.90;94.60
27368;DHT22;14839;48.106;11.618;2023-02-26T06:31:43;-2.80;94.60
27368;DHT22;14839;48.106;11.618;2023-02-26T06:34:09;-2.70;94.60
27368;DHT22;14839;48.106;11.618;2023-02-26T06:36:35;-2.70;94.60
27368;DHT22;14839;48.106;11.618;2023-02-26T06:39:00;-2.70;94.60
27368;DHT22;14839;48.106;11.618;2023-02-26T06:41:26;-2.70;94.60
27368;DHT22;14839;48.106;11.618;2023-02-26T06:43:51;-2.70;94.60
27368;DHT22;14839;48.106;11.618;2023-02-26T06:46:17;-2.60;94.60
27368;DHT22;14839;48.106;11.618;2023-02-26T06:48:42;-2.50;94.60
27368;DHT22;14839;48.106;11.618;2023-02-26T06:51:08;-2.40;94.60
27368;DHT22;14839;48.106;11.618;2023-02-26T06:53:34;-2.40;94.60
27368;DHT22;14839;48.106;11.618;2023-02-26T06:55:59;-2.30;94.60
27368;DHT22;14839;48.106;11.618;2023-02-26T06:58:25;-2.20;94.60
27368;DHT22;14839;48.106;11.618;2023-02-26T07:00:51;-2.20;94.60
27368;DHT22;14839;48.106;11.618;2023-02-26T07:03:17;-2.10;94.60
27368;DHT22;14839;48.106;11.618;2023-02-26T07:05:44;-2.20;94.60
27368;DHT22;14839;48.106;11.618;2023-02-26T07:08:10;-2.10;94.60
27368;DHT22;14839;48.106;11.618;2023-02-26T07:10:36;-2.10;94.60
27368;DHT22;14839;48.106;11.618;2023-02-26T07:13:02;-2.00;94.60
27368;DHT22;14839;48.106;11.618;2023-02-26T07:15:28;-1.90;94.60
27368;DHT22;14839;48.106;11.618;2023-02-26T07:17:54;-1.70;94.60
27368;DHT22;14839;48.106;11.618;2023-02-26T07:20:20;-1.90;94.60
27368;DHT22;14839;48.106;11.618;2023-02-26T07:22:47;-2.00;94.60
27368;DHT22;14839;48.106;11.618;2023-02-26T07:25:13;-1.90;94.60
27368;DHT22;14839;48.106;11.618;2023-02-26T07:27:39;-1.80;94.60
27368;DHT22;14839;48.106;11.618;2023-02-26T07:30:06;-1.60;94.60
27368;DHT22;14839;48.106;11.618;2023-02-26T07:32:32;-1.40;94.60
27368;DHT22;14839;48.106;11.618;2023-02-26T07:34:58;-1.40;94.60
27368;DHT22;14839;48.106;11.618;2023-02-26T07:37:24;-1.30;94.60
27368;DHT22;14839;48.106;11.618;2023-02-26T07:39:50;-1.10;94.60
27368;DHT22;14839;48.106;11.618;2023-02-26T07:42:16;-0.80;94.60
27368;DHT22;14839;48.106;11.618;2023-02-26T07:44:41;-0.40;94.60
27368;DHT22;14839;48.106;11.618;2023-02-26T07:47:07;0.00;94.60
27368;DHT22;14839;48.106;11.618;2023-02-26T07:49:33;0.50;94.60
27368;DHT22;14839;48.106;11.618;2023-02-26T07:51:59;0.70;92.90
27368;DHT22;14839;48.106;11.618;2023-02-26T07:54:25;0.60;92.80
27368;DHT22;14839;48.106;11.618;2023-02-26T07:56:51;0.30;91.80
27368;DHT22;14839;48.106;11.618;2023-02-26T07:59:17;0.00;92.40
27368;DHT22;14839;48.106;11.618;2023-02-26T08:01:42;-0.30;93.90
27368;DHT22;14839;48.106;11.618;2023-02-26T08:04:08;-0.40;94.20
27368;DHT22;14839;48.106;11.618;2023-02-26T08:06:33;-0.50;94.40
27368;DHT22;14839;48.106;11.618;2023-02-26T08:09:00;-0.60;94.60
27368;DHT22;14839;48.106;11.618;2023-02-26T08:11:26;-0.60;94.60
27368;DHT22;14839;48.106;11.618;2023-02-26T08:13:52;-0.80;94.60
27368;DHT22;14839;48.106;11.618;2023-02-26T08:16:18;-0.90;94.60
27368;DHT22;14839;48.106;11.618;2023-02-26T08:18:44;-0.80;94.60
27368;DHT22;14839;48.106;11.618;2023-02-26T08:21:09;-1.10;94.60
27368;DHT22;14839;48.106;11.618;2023-02-26T08:23:36;-1.10;94.60
27368;DHT22;14839;48.106;11.618;2023-02-26T08:26:04;-1.20;94.60
27368;DHT22;14839;48.106;11.618;2023-02-26T08:28:30;-1.00;94.60
27368;DHT22;14839;48.106;11.618;2023-02-26T08:30:55;-0.80;94.60
27368;DHT22;14839;48.106;11.618;2023-02-26T08:33:21;-0.80;94.60
27368;DHT22;14839;48.106;11.618;2023-02-26T08:35:48;-0.90;94.60
27368;DHT22;14839;48.106;11.618;2023-02-26T08:38:13;-1.00;94.60
27368;DHT22;14839;48.106;11.618;2023-02-26T08:40:39;-0.80;94.60
27368;DHT22;14839;48.106;11.618;2023-02-26T08:43:05;-0.60;94.60
27368;DHT22;14839;48.106;11.618;2023-02-26T08:45:30;-0.30;94.60
27368;DHT22;14839;48.106;11.618;2023-02-26T08:47:56;-0.30;94.50
27368;DHT22;14839;48.106;11.618;2023-02-26T08:50:22;-0.40;94.30
27368;DHT22;14839;48.106;11.618;2023-02-26T08:52:47;-0.40;94.60
27368;DHT22;14839;48.106;11.618;2023-02-26T08:55:13;-0.40;93.90
27368;DHT22;14839;48.106;11.618;2023-02-26T08:57:38;-0.70;94.50
27368;DHT22;14839;48.106;11.618;2023-02-26T09:00:05;-0.70;94.50
27368;DHT22;14839;48.106;11.618;2023-02-26T09:02:35;-0.90;94.60
27368;DHT22;14839;48.106;11.618;2023-02-26T09:05:01;-1.10;94.60
27368;DHT22;14839;48.106;11.618;2023-02-26T09:07:27;-1.20;94.60
27368;DHT22;14839;48.106;11.618;2023-02-26T09:09:52;-1.00;94.60
27368;DHT22;14839;48.106;11.618;2023-02-26T09:12:18;-0.90;94.60
27368;DHT22;14839;48.106;11.618;2023-02-26T09:14:43;-0.90;94.60
27368;DHT22;14839;48.106;11.618;2023-02-26T09:17:09;-0.90;94.60
27368;DHT22;14839;48.106;11.618;2023-02-26T09:19:35;-1.00;94.60
27368;DHT22;14839;48.106;11.618;2023-02-26T09:22:00;-0.90;94.60
27368;DHT22;14839;48.106;11.618;2023-02-26T09:24:26;-1.00;94.60
27368;DHT22;14839;48.106;11.618;2023-02-26T09:26:52;-1.10;94.60
27368;DHT22;14839;48.106;11.618;2023-02-26T09:29:17;-1.00;94.60
27368;DHT22;14839;48.106;11.618;2023-02-26T09:31:43;-1.10;94.60
27368;DHT22;14839;48.106;11.618;2023-02-26T09:34:09;-1.00;94.60
27368;DHT22;14839;48.106;11.618;2023-02-26T09:36:34;-0.90;94.60
27368;DHT22;14839;48.106;11.618;2023-02-26T09:39:01;-0.80;94.60
27368;DHT22;14839;48.106;11.618;2023-02-26T09:41:33;-0.40;94.60
27368;DHT22;14839;48.106;11.618;2023-02-26T09:44:16;0.00;94.60
27368;DHT22;14839;48.106;11.618;2023-02-26T09:52:44;1.10;93.00
27368;DHT22;14839;48.106;11.618;2023-02-26T09:57:44;1.20;91.20
27368;DHT22;14839;48.106;11.618;2023-02-26T10:03:25;0.80;91.60
27368;DHT22;14839;48.106;11.618;2023-02-26T10:09:04;0.70;92.40
27368;DHT22;14839;48.106;11.618;2023-02-26T10:14:09;0.40;93.40
27368;DHT22;14839;48.106;11.618;2023-02-26T10:16:40;-0.10;94.40
27368;DHT22;14839;48.106;11.618;2023-02-26T10:19:13;-0.10;94.60
27368;DHT22;14839;48.106;11.618;2023-02-26T10:27:02;-0.10;94.60
27368;DHT22;14839;48.106;11.618;2023-02-26T10:34:56;0.70;94.60
27368;DHT22;14839;48.106;11.618;2023-02-26T10:37:37;1.30;93.70
27368;DHT22;14839;48.106;11.618;2023-02-26T10:43:16;1.40;91.60
27368;DHT22;14839;48.106;11.618;2023-02-26T10:49:16;1.40;92.10
27368;DHT22;14839;48.106;11.618;2023-02-26T10:51:45;1.30;91.90
27368;DHT22;14839;48.106;11.618;2023-02-26T10:54:30;1.40;92.40
27368;DHT22;14839;48.106;11.618;2023-02-26T10:56:58;1.10;93.00
27368;DHT22;14839;48.106;11.618;2023-02-26T10:59:23;0.90;94.00
27368;DHT22;14839;48.106;11.618;2023-02-26T11:01:50;0.70;94.00
27368;DHT22;14839;48.106;11.618;2023-02-26T11:04:20;0.70;94.60
27368;DHT22;14839;48.106;11.618;2023-02-26T11:06:54;0.50;94.60
27368;DHT22;14839;48.106;11.618;2023-02-26T11:12:00;0.50;94.60
27368;DHT22;14839;48.106;11.618;2023-02-26T11:14:31;0.70;94.60
27368;DHT22;14839;48.106;11.618;2023-02-26T11:17:18;0.70;94.50
27368;DHT22;14839;48.106;11.618;2023-02-26T11:19:51;0.60;94.60
27368;DHT22;14839;48.106;11.618;2023-02-26T11:22:17;0.40;94.60
27368;DHT22;14839;48.106;11.618;2023-02-26T11:24:47;0.20;94.60
27368;DHT22;14839;48.106;11.618;2023-02-26T11:27:17;0.40;94.60
27368;DHT22;14839;48.106;11.618;2023-02-26T11:29:48;0.70;94.60
27368;DHT22;14839;48.106;11.618;2023-02-26T11:35:24;1.10;93.10
27368;DHT22;14839;48.106;11.618;2023-02-26T11:38:00;1.50;92.40
27368;DHT22;14839;48.106;11.618;2023-02-26T11:40:37;1.50;90.90
27368;DHT22;14839;48.106;11.618;2023-02-26T11:43:18;1.30;91.70
27368;DHT22;14839;48.106;11.618;2023-02-26T11:45:53;1.10;93.80
27368;DHT22;14839;48.106;11.618;2023-02-26T11:48:23;0.90;94.60
27368;DHT22;14839;48.106;11.618;2023-02-26T11:50:53;0.90;94.60
27368;DHT22;14839;48.106;11.618;2023-02-26T11:56:09;0.50;94.60
27368;DHT22;14839;48.106;11.618;2023-02-26T11:58:37;0.50;94.60
27368;DHT22;14839;48.106;11.618;2023-02-26T12:01:05;0.60;94.60
27368;DHT22;14839;48.106;11.618;2023-02-26T12:03:33;0.80;94.60
27368;DHT22;14839;48.106;11.618;2023-02-26T12:06:01;1.20;94.60
27368;DHT22;14839;48.106;11.618;2023-02-26T12:08:34;1.50;94.60
27368;DHT22;14839;48.106;11.618;2023-02-26T12:16:43;1.00;94.60
27368;DHT22;14839;48.106;11.618;2023-02-26T12:19:51;0.90;94.60
27368;DHT22;14839;48.106;11.618;2023-02-26T12:22:34;1.20;94.60
27368;DHT22;14839;48.106;11.618;2023-02-26T12:33:42;0.80;94.60
27368;DHT22;14839;48.106;11.618;2023-02-26T12:45:38;1.70;93.50
27368;DHT22;14839;48.106;11.618;2023-02-26T12:51:02;2.00;90.60
27368;DHT22;14839;48.106;11.618;2023-02-26T13:02:24;2.40;88.90
27368;DHT22;14839;48.106;11.618;2023-02-26T13:08:23;2.20;87.50
27368;DHT22;14839;48.106;11.618;2023-02-26T13:13:44;1.70;87.10
27368;DHT22;14839;48.106;11.618;2023-02-26T13:16:38;1.70;85.70
27368;DHT22;14839;48.106;11.618;2023-02-26T13:22:29;2.20;86.90
27368;DHT22;14839;48.106;11.618;2023-02-26T13:27:31;2.60;89.50
27368;DHT22;14839;48.106;11.618;2023-02-26T13:32:46;2.80;90.10
27368;DHT22;14839;48.106;11.618;2023-02-26T13:37:53;2.50;87.40
27368;DHT22;14839;48.106;11.618;2023-02-26T13:40:40;2.40;89.20
27368;DHT22;14839;48.106;11.618;2023-02-26T13:43:28;2.50;89.30
27368;DHT22;14839;48.106;11.618;2023-02-26T13:46:30;2.30;88.40
27368;DHT22;14839;48.106;11.618;2023-02-26T13:49:20;2.10;90.70
27368;DHT22;14839;48.106;11.618;2023-02-26T13:51:49;1.80;92.00
27368;DHT22;14839;48.106;11.618;2023-02-26T14:07:05;1.30;94.60
27368;DHT22;14839;48.106;11.618;2023-02-26T14:09:55;1.40;94.60
27368;DHT22;14839;48.106;11.618;2023-02-26T14:12:24;1.50;94.60
27368;DHT22;14839;48.106;11.618;2023-02-26T14:20:22;1.40;92.60
27368;DHT22;14839;48.106;11.618;2023-02-26T14:25:40;1.20;91.70
27368;DHT22;14839;48.106;11.618;2023-02-26T14:33:38;0.90;93.70
27368;DHT22;14839;48.106;11.618;2023-02-26T14:36:05;0.80;94.60
27368;DHT22;14839;48.106;11.618;2023-02-26T14:38:36;0.90;94.60
27368;DHT22;14839;48.106;11.618;2023-02-26T14:43:51;1.60;94.50
27368;DHT22;14839;48.106;11.618;2023-02-26T14:46:20;1.80;93.00
27368;DHT22;14839;48.106;11.618;2023-02-26T14:48:46;1.30;94.60
27368;DHT22;14839;48.106;11.618;2023-02-26T14:51:40;0.70;94.60
27368;DHT22;14839;48.106;11.618;2023-02-26T14:57:24;0.30;94.60
27368;DHT22;14839;48.106;11.618;2023-02-26T15:00:24;0.10;94.60
27368;DHT22;14839;48.106;11.618;2023-02-26T15:06:00;-0.30;94.60
27368;DHT22;14839;48.106;11.618;2023-02-26T15:11:26;-0.30;94.60
27368;DHT22;14839;48.106;11.618;2023-02-26T15:16:51;-0.20;94.60
27368;DHT22;14839;48.106;11.618;2023-02-26T15:22:38;-0.20;94.60
27368;DHT22;14839;48.106;11.618;2023-02-26T15:25:18;-0.10;94.60
27368;DHT22;14839;48.106;11.618;2023-02-26T15:27:48;-0.10;94.60
27368;DHT22;14839;48.106;11.618;2023-02-26T15:30:15;-0.20;94.60
27368;DHT22;14839;48.106;11.618;2023-02-26T15:32:40;-0.10;94.60
27368;DHT22;14839;48.106;11.618;2023-02-26T15:35:17;-0.10;94.60
27368;DHT22;14839;48.106;11.618;2023-02-26T15:37:48;0.00;94.60
27368;DHT22;14839;48.106;11.618;2023-02-26T15:40:14;0.10;94.60
27368;DHT22;14839;48.106;11.618;2023-02-26T15:42:41;0.10;94.60
27368;DHT22;14839;48.106;11.618;2023-02-26T15:48:02;0.20;94.60
27368;DHT22;14839;48.106;11.618;2023-02-26T15:50:32;0.10;94.60
27368;DHT22;14839;48.106;11.618;2023-02-26T15:53:01;0.10;94.60
27368;DHT22;14839;48.106;11.618;2023-02-26T15:55:31;0.20;94.60
27368;DHT22;14839;48.106;11.618;2023-02-26T15:57:59;0.10;94.60
27368;DHT22;14839;48.106;11.618;2023-02-26T16:00:26;0.10;94.60
27368;DHT22;14839;48.106;11.618;2023-02-26T16:02:56;0.00;94.60
27368;DHT22;14839;48.106;11.618;2023-02-26T16:05:24;0.10;94.60
27368;DHT22;14839;48.106;11.618;2023-02-26T16:07:50;0.10;94.60
27368;DHT22;14839;48.106;11.618;2023-02-26T16:10:35;0.10;94.60
27368;DHT22;14839;48.106;11.618;2023-02-26T16:13:04;0.10;94.60
27368;DHT22;14839;48.106;11.618;2023-02-26T16:15:37;0.00;94.60
27368;DHT22;14839;48.106;11.618;2023-02-26T16:18:07;-0.10;94.60
27368;DHT22;14839;48.106;11.618;2023-02-26T16:20:39;-0.10;94.60
27368;DHT22;14839;48.106;11.618;2023-02-26T16:23:11;-0.20;94.60
27368;DHT22;14839;48.106;11.618;2023-02-26T16:25:40;-0.20;94.60
27368;DHT22;14839;48.106;11.618;2023-02-26T16:28:22;-0.10;94.60
27368;DHT22;14839;48.106;11.618;2023-02-26T16:30:52;0.00;94.60
27368;DHT22;14839;48.106;11.618;2023-02-26T16:33:21;0.00;94.60
27368;DHT22;14839;48.106;11.618;2023-02-26T16:35:53;0.00;94.60
27368;DHT22;14839;48.106;11.618;2023-02-26T16:38:23;0.00;94.60
27368;DHT22;14839;48.106;11.618;2023-02-26T16:45:54;-0.50;94.60
27368;DHT22;14839;48.106;11.618;2023-02-26T16:48:43;-0.70;94.60
27368;DHT22;14839;48.106;11.618;2023-02-26T16:51:14;-0.70;94.60
27368;DHT22;14839;48.106;11.618;2023-02-26T16:53:47;-0.70;94.60
27368;DHT22;14839;48.106;11.618;2023-02-26T16:56:19;-0.60;94.60
27368;DHT22;14839;48.106;11.618;2023-02-26T16:58:48;-0.50;94.60
27368;DHT22;14839;48.106;11.618;2023-02-26T17:01:17;-0.40;94.60
27368;DHT22;14839;48.106;11.618;2023-02-26T17:03:50;-0.30;94.60
27368;DHT22;14839;48.106;11.618;2023-02-26T17:06:21;-0.30;93.50
27368;DHT22;14839;48.106;11.618;2023-02-26T17:08:57;-0.20;93.10
27368;DHT22;14839;48.106;11.618;2023-02-26T17:11:30;-0.20;93.40
27368;DHT22;14839;48.106;11.618;2023-02-26T17:14:21;-0.20;93.70
27368;DHT22;14839;48.106;11.618;2023-02-26T17:16:49;-0.20;93.20
27368;DHT22;14839;48.106;11.618;2023-02-26T17:19:14;-0.20;93.70
27368;DHT22;14839;48.106;11.618;2023-02-26T17:21:44;-0.20;93.60
27368;DHT22;14839;48.106;11.618;2023-02-26T17:24:31;-0.20;93.60
27368;DHT22;14839;48.106;11.618;2023-02-26T17:26:59;-0.10;93.40
27368;DHT22;14839;48.106;11.618;2023-02-26T17:29:39;-0.10;93.30
27368;DHT22;14839;48.106;11.618;2023-02-26T17:32:14;-0.10;93.40
27368;DHT22;14839;48.106;11.618;2023-02-26T17:34:41;-0.10;94.50
27368;DHT22;14839;48.106;11.618;2023-02-26T17:37:10;-0.10;94.20
27368;DHT22;14839;48.106;11.618;2023-02-26T17:39:36;-0.10;94.50
27368;DHT22;14839;48.106;11.618;2023-02-26T17:42:01;-0.20;94.60
27368;DHT22;14839;48.106;11.618;2023-02-26T17:44:27;-0.20;94.60
27368;DHT22;14839;48.106;11.618;2023-02-26T17:46:53;-0.30;94.60
27368;DHT22;14839;48.106;11.618;2023-02-26T17:49:19;-0.30;94.60
27368;DHT22;14839;48.106;11.618;2023-02-26T17:51:45;-0.50;94.60
27368;DHT22;14839;48.106;11.618;2023-02-26T17:54:11;-0.60;94.60
27368;DHT22;14839;48.106;11.618;2023-02-26T17:56:36;-0.70;94.60
27368;DHT22;14839;48.106;11.618;2023-02-26T17:59:03;-0.80;94.60
27368;DHT22;14839;48.106;11.618;2023-02-26T18:01:29;-0.90;94.60
27368;DHT22;14839;48.106;11.618;2023-02-26T18:03:55;-0.90;94.60
27368;DHT22;14839;48.106;11.618;2023-02-26T18:06:22;-1.10;94.60
27368;DHT22;14839;48.106;11.618;2023-02-26T18:08:48;-1.10;94.60
27368;DHT22;14839;48.106;11.618;2023-02-26T18:11:15;-1.10;94.60
27368;DHT22;14839;48.106;11.618;2023-02-26T18:13:41;-1.20;94.60
27368;DHT22;14839;48.106;11.618;2023-02-26T18:16:17;-1.20;94.60
27368;DHT22;14839;48.106;11.618;2023-02-26T18:18:43;-1.20;94.60
27368;DHT22;14839;48.106;11.618;2023-02-26T18:21:09;-1.30;94.60
27368;DHT22;14839;48.106;11.618;2023-02-26T18:23:35;-1.30;94.60
27368;DHT22;14839;48.106;11.618;2023-02-26T18:26:01;-1.30;94.60
27368;DHT22;14839;48.106;11.618;2023-02-26T18:28:27;-1.30;94.60
27368;DHT22;14839;48.106;11.618;2023-02-26T18:30:54;-1.30;94.60
27368;DHT22;14839;48.106;11.618;2023-02-26T18:33:21;-1.20;94.60
27368;DHT22;14839;48.106;11.618;2023-02-26T18:35:49;-1.20;94.60
27368;DHT22;14839;48.106;11.618;2023-02-26T18:38:19;-1.20;94.60
27368;DHT22;14839;48.106;11.618;2023-02-26T18:40:46;-1.20;94.60
27368;DHT22;14839;48.106;11.618;2023-02-26T18:43:12;-1.20;94.60
27368;DHT22;14839;48.106;11.618;2023-02-26T18:45:39;-1.10;94.60
27368;DHT22;14839;48.106;11.618;2023-02-26T18:48:05;-1.00;94.60
27368;DHT22;14839;48.106;11.618;2023-02-26T18:50:30;-1.00;94.60
27368;DHT22;14839;48.106;11.618;2023-02-26T18:52:56;-1.00;94.60
27368;DHT22;14839;48.106;11.618;2023-02-26T18:55:22;-1.00;94.60
27368;DHT22;14839;48.106;11.618;2023-02-26T18:57:48;-0.90;94.60
27368;DHT22;14839;48.106;11.618;2023-02-26T19:00:14;-0.90;94.60
27368;DHT22;14839;48.106;11.618;2023-02-26T19:02:41;-0.90;94.60
27368;DHT22;14839;48.106;11.618;2023-02-26T19:05:08;-0.80;94.60
27368;DHT22;14839;48.106;11.618;2023-02-26T19:07:34;-0.90;94.60
27368;DHT22;14839;48.106;11.618;2023-02-26T19:10:00;-0.80;94.60
27368;DHT22;14839;48.106;11.618;2023-02-26T19:12:27;-0.80;94.60
27368;DHT22;14839;48.106;11.618;2023-02-26T19:14:52;-0.80;94.60
27368;DHT22;14839;48.106;11.618;2023-02-26T19:17:18;-0.80;94.60
27368;DHT22;14839;48.106;11.618;2023-02-26T19:19:44;-0.80;94.60
27368;DHT22;14839;48.106;11.618;2023-02-26T19:22:11;-0.80;94.60
27368;DHT22;14839;48.106;11.618;2023-02-26T19:24:39;-0.90;94.60
27368;DHT22;14839;48.106;11.618;2023-02-26T19:27:04;-0.80;94.60
27368;DHT22;14839;48.106;11.618;2023-02-26T19:29:31;-0.80;94.60
27368;DHT22;14839;48.106;11.618;2023-02-26T19:31:58;-0.80;94.60
27368;DHT22;14839;48.106;11.618;2023-02-26T19:34:25;-0.90;94.60
27368;DHT22;14839;48.106;11.618;2023-02-26T19:36:51;-0.90;94.60
27368;DHT22;14839;48.106;11.618;2023-02-26T19:39:17;-1.00;94.60
27368;DHT22;14839;48.106;11.618;2023-02-26T19:41:44;-1.00;94.60
27368;DHT22;14839;48.106;11.618;2023-02-26T19:44:10;-1.00;94.60
27368;DHT22;14839;48.106;11.618;2023-02-26T19:46:36;-1.00;94.60
27368;DHT22;14839;48.106;11.618;2023-02-26T19:49:02;-1.00;94.60
27368;DHT22;14839;48.106;11.618;2023-02-26T19:51:28;-1.00;94.60
27368;DHT22;14839;48.106;11.618;2023-02-26T19:53:54;-1.00;94.60
27368;DHT22;14839;48.106;11.618;2023-02-26T19:56:20;-1.10;94.60
27368;DHT22;14839;48.106;11.618;2023-02-26T19:58:46;-1.10;94.60
27368;DHT22;14839;48.106;11.618;2023-02-26T20:01:11;-1.20;94.60
27368;DHT22;14839;48.106;11.618;2023-02-26T20:03:37;-1.10;94.60
27368;DHT22;14839;48.106;11.618;2023-02-26T20:06:02;-1.10;94.60
27368;DHT22;14839;48.106;11.618;2023-02-26T20:08:29;-1.10;94.60
27368;DHT22;14839;48.106;11.618;2023-02-26T20:10:56;-1.10;94.60
27368;DHT22;14839;48.106;11.618;2023-02-26T20:13:26;-1.10;94.60
27368;DHT22;14839;48.106;11.618;2023-02-26T20:15:55;-1.10;94.60
27368;DHT22;14839;48.106;11.618;2023-02-26T20:18:23;-1.10;94.60
27368;DHT22;14839;48.106;11.618;2023-02-26T20:20:49;-1.20;94.60
27368;DHT22;14839;48.106;11.618;2023-02-26T20:23:15;-1.20;94.60
27368;DHT22;14839;48.106;11.618;2023-02-26T20:25:42;-1.20;94.60
27368;DHT22;14839;48.106;11.618;2023-02-26T20:28:07;-1.30;94.60
27368;DHT22;14839;48.106;11.618;2023-02-26T20:30:33;-1.30;94.60
27368;DHT22;14839;48.106;11.618;2023-02-26T20:32:59;-1.30;94.60
27368;DHT22;14839;48.106;11.618;2023-02-26T20:35:25;-1.40;94.60
27368;DHT22;14839;48.106;11.618;2023-02-26T20:37:50;-1.40;94.60
27368;DHT22;14839;48.106;11.618;2023-02-26T20:40:16;-1.50;94.60
27368;DHT22;14839;48.106;11.618;2023-02-26T20:42:42;-1.50;94.60
27368;DHT22;14839;48.106;11.618;2023-02-26T20:45:08;-1.50;94.60
27368;DHT22;14839;48.106;11.618;2023-02-26T20:47:33;-1.50;94.60
27368;DHT22;14839;48.106;11.618;2023-02-26T20:49:59;-1.60;94.60
27368;DHT22;14839;48.106;11.618;2023-02-26T20:52:25;-1.50;94.60
27368;DHT22;14839;48.106;11.618;2023-02-26T20:54:51;-1.60;94.60
27368;DHT22;14839;48.106;11.618;2023-02-26T20:57:17;-1.60;94.60
27368;DHT22;14839;48.106;11.618;2023-02-26T20:59:42;-1.60;94.60
27368;DHT22;14839;48.106;11.618;2023-02-26T21:02:10;-1.60;94.60
27368;DHT22;14839;48.106;11.618;2023-02-26T21:04:37;-1.60;94.60
27368;DHT22;14839;48.106;11.618;2023-02-26T21:07:02;-1.60;94.60
27368;DHT22;14839;48.106;11.618;2023-02-26T21:09:38;-1.60;94.60
27368;DHT22;14839;48.106;11.618;2023-02-26T21:12:05;-1.70;94.60
27368;DHT22;14839;48.106;11.618;2023-02-26T21:14:30;-1.60;94.60
27368;DHT22;14839;48.106;11.618;2023-02-26T21:16:56;-1.70;94.60
27368;DHT22;14839;48.106;11.618;2023-02-26T21:19:23;-1.60;94.60
27368;DHT22;14839;48.106;11.618;2023-02-26T21:21:49;-1.60;94.60
27368;DHT22;14839;48.106;11.618;2023-02-26T21:24:15;-1.70;94.60
27368;DHT22;14839;48.106;11.618;2023-02-26T21:26:41;-1.60;94.60
27368;DHT22;14839;48.106;11.618;2023-02-26T21:29:07;-1.70;94.60
27368;DHT22;14839;48.106;11.618;2023-02-26T21:31:32;-1.70;94.60
27368;DHT22;14839;48.106;11.618;2023-02-26T21:33:58;-1.70;94.60
27368;DHT22;14839;48.106;11.618;2023-02-26T21:36:24;-1.70;94.60
27368;DHT22;14839;48.106;11.618;2023-02-26T21:38:50;-1.70;94.60
27368;DHT22;14839;48.106;11.618;2023-02-26T21:41:15;-1.70;94.60
27368;DHT22;14839;48.106;11.618;2023-02-26T21:43:41;-1.70;94.60
27368;DHT22;14839;48.106;11.618;2023-02-26T21:46:07;-1.60;94.60
27368;DHT22;14839;48.106;11.618;2023-02-26T21:48:32;-1.60;94.60
27368;DHT22;14839;48.106;11.618;2023-02-26T21:50:58;-1.60;94.60
27368;DHT22;14839;48.106;11.618;2023-02-26T21:53:24;-1.60;94.60
27368;DHT22;14839;48.106;11.618;2023-02-26T21:55:50;-1.70;94.60
27368;DHT22;14839;48.106;11.618;2023-02-26T21:58:16;-1.70;94.60
27368;DHT22;14839;48.106;11.618;2023-02-26T22:00:41;-1.70;94.60
27368;DHT22;14839;48.106;11.618;2023-02-26T22:03:07;-1.70;94.60
27368;DHT22;14839;48.106;11.618;2023-02-26T22:05:32;-1.70;94.60
27368;DHT22;14839;48.106;11.618;2023-02-26T22:07:58;-1.70;94.60
27368;DHT22;14839;48.106;11.618;2023-02-26T22:10:23;-1.70;94.60
27368;DHT22;14839;48.106;11.618;2023-02-26T22:12:49;-1.60;94.60
27368;DHT22;14839;48.106;11.618;2023-02-26T22:15:15;-1.60;94.60
27368;DHT22;14839;48.106;11.618;2023-02-26T22:17:40;-1.60;94.60
27368;DHT22;14839;48.106;11.618;2023-02-26T22:20:06;-1.60;94.60
27368;DHT22;14839;48.106;11.618;2023-02-26T22:22:35;-1.50;94.60
27368;DHT22;14839;48.106;11.618;2023-02-26T22:25:02;-1.50;94.60
27368;DHT22;14839;48.106;11.618;2023-02-26T22:27:28;-1.40;94.60
27368;DHT22;14839;48.106;11.618;2023-02-26T22:29:54;-1.40;94.60
